sensor_id;sensor_type;location;lat;lon;timestamp;P1;durP1;ratioP1;P2;durP2;ratioP2
36747;SDS011;22716;51.556;5.080;2023-01-01T00:02:10;19.00;;;4.70;;
36747;SDS011;22716;51.556;5.080;2023-01-01T00:04:39;14.87;;;6.23;;
36747;SDS011;22716;51.556;5.080;2023-01-01T00:07:08;13.30;;;5.20;;
36747;SDS011;22716;51.556;5.080;2023-01-01T00:09:36;13.00;;;6.07;;
36747;SDS011;22716;51.556;5.080;2023-01-01T00:12:18;17.83;;;8.40;;
36747;SDS011;22716;51.556;5.080;2023-01-01T00:14:49;16.27;;;4.67;;
36747;SDS011;22716;51.556;5.080;2023-01-01T00:17:18;12.80;;;4.77;;
36747;SDS011;22716;51.556;5.080;2023-01-01T00:19:47;13.60;;;5.37;;
36747;SDS011;22716;51.556;5.080;2023-01-01T00:22:16;14.67;;;4.87;;
36747;SDS011;22716;51.556;5.080;2023-01-01T00:24:45;13.27;;;5.80;;
36747;SDS011;22716;51.556;5.080;2023-01-01T00:27:14;5.57;;;3.10;;
36747;SDS011;22716;51.556;5.080;2023-01-01T00:29:43;9.33;;;3.47;;
36747;SDS011;22716;51.556;5.080;2023-01-01T00:32:14;9.53;;;3.10;;
36747;SDS011;22716;51.556;5.080;2023-01-01T00:34:43;10.57;;;3.27;;
36747;SDS011;22716;51.556;5.080;2023-01-01T00:37:11;8.67;;;3.43;;
36747;SDS011;22716;51.556;5.080;2023-01-01T00:39:42;6.50;;;4.70;;
36747;SDS011;22716;51.556;5.080;2023-01-01T00:42:11;13.13;;;3.83;;
36747;SDS011;22716;51.556;5.080;2023-01-01T00:44:40;7.53;;;3.27;;
36747;SDS011;22716;51.556;5.080;2023-01-01T00:47:08;14.20;;;3.10;;
36747;SDS011;22716;51.556;5.080;2023-01-01T00:49:40;12.90;;;4.07;;
36747;SDS011;22716;51.556;5.080;2023-01-01T00:52:08;13.10;;;3.07;;
36747;SDS011;22716;51.556;5.080;2023-01-01T00:54:37;6.37;;;2.27;;
36747;SDS011;22716;51.556;5.080;2023-01-01T00:57:06;10.97;;;3.30;;
36747;SDS011;22716;51.556;5.080;2023-01-01T00:59:35;9.53;;;3.17;;
36747;SDS011;22716;51.556;5.080;2023-01-01T01:02:03;7.47;;;3.00;;
36747;SDS011;22716;51.556;5.080;2023-01-01T01:04:32;9.17;;;2.77;;
36747;SDS011;22716;51.556;5.080;2023-01-01T01:07:03;11.73;;;3.40;;
36747;SDS011;22716;51.556;5.080;2023-01-01T01:09:32;11.23;;;2.77;;
36747;SDS011;22716;51.556;5.080;2023-01-01T01:12:01;6.03;;;2.30;;
36747;SDS011;22716;51.556;5.080;2023-01-01T01:14:30;6.53;;;2.70;;
36747;SDS011;22716;51.556;5.080;2023-01-01T01:16:59;6.60;;;2.33;;
36747;SDS011;22716;51.556;5.080;2023-01-01T01:19:28;14.80;;;2.87;;
36747;SDS011;22716;51.556;5.080;2023-01-01T01:21:56;8.93;;;2.73;;
36747;SDS011;22716;51.556;5.080;2023-01-01T01:24:28;9.07;;;3.53;;
36747;SDS011;22716;51.556;5.080;2023-01-01T01:26:56;11.07;;;3.17;;
36747;SDS011;22716;51.556;5.080;2023-01-01T01:29:26;16.70;;;3.47;;
36747;SDS011;22716;51.556;5.080;2023-01-01T01:31:54;5.63;;;2.33;;
36747;SDS011;22716;51.556;5.080;2023-01-01T01:34:23;8.80;;;2.90;;
36747;SDS011;22716;51.556;5.080;2023-01-01T01:36:52;8.20;;;2.60;;
36747;SDS011;22716;51.556;5.080;2023-01-01T01:39:21;8.73;;;2.50;;
36747;SDS011;22716;51.556;5.080;2023-01-01T01:41:52;6.40;;;3.07;;
36747;SDS011;22716;51.556;5.080;2023-01-01T01:47:20;7.50;;;3.07;;
36747;SDS011;22716;51.556;5.080;2023-01-01T01:49:53;10.07;;;2.55;;
36747;SDS011;22716;51.556;5.080;2023-01-01T01:52:26;7.90;;;2.37;;
36747;SDS011;22716;51.556;5.080;2023-01-01T01:54:56;7.47;;;1.93;;
36747;SDS011;22716;51.556;5.080;2023-01-01T01:57:29;5.03;;;2.20;;
36747;SDS011;22716;51.556;5.080;2023-01-01T01:59:59;4.60;;;1.83;;
36747;SDS011;22716;51.556;5.080;2023-01-01T02:02:31;7.40;;;2.17;;
36747;SDS011;22716;51.556;5.080;2023-01-01T02:07:33;7.97;;;2.60;;
36747;SDS011;22716;51.556;5.080;2023-01-01T02:10:03;8.07;;;2.50;;
36747;SDS011;22716;51.556;5.080;2023-01-01T02:12:37;3.87;;;1.80;;
36747;SDS011;22716;51.556;5.080;2023-01-01T02:15:07;9.23;;;2.80;;
36747;SDS011;22716;51.556;5.080;2023-01-01T02:17:39;6.57;;;2.20;;
36747;SDS011;22716;51.556;5.080;2023-01-01T02:20:17;5.40;;;2.40;;
36747;SDS011;22716;51.556;5.080;2023-01-01T02:22:55;8.37;;;2.87;;
36747;SDS011;22716;51.556;5.080;2023-01-01T02:25:40;5.80;;;1.90;;
36747;SDS011;22716;51.556;5.080;2023-01-01T02:31:05;4.97;;;2.00;;
36747;SDS011;22716;51.556;5.080;2023-01-01T02:33:37;6.53;;;2.00;;
36747;SDS011;22716;51.556;5.080;2023-01-01T02:36:08;5.37;;;2.20;;
36747;SDS011;22716;51.556;5.080;2023-01-01T02:38:39;8.97;;;2.53;;
36747;SDS011;22716;51.556;5.080;2023-01-01T02:41:13;5.70;;;2.33;;
36747;SDS011;22716;51.556;5.080;2023-01-01T02:43:49;8.97;;;2.00;;
36747;SDS011;22716;51.556;5.080;2023-01-01T02:46:19;7.53;;;1.80;;
36747;SDS011;22716;51.556;5.080;2023-01-01T02:48:48;3.63;;;1.33;;
36747;SDS011;22716;51.556;5.080;2023-01-01T02:51:21;3.53;;;1.60;;
36747;SDS011;22716;51.556;5.080;2023-01-01T02:53:58;5.70;;;2.30;;
36747;SDS011;22716;51.556;5.080;2023-01-01T02:56:37;5.40;;;2.07;;
36747;SDS011;22716;51.556;5.080;2023-01-01T02:59:20;7.83;;;1.90;;
36747;SDS011;22716;51.556;5.080;2023-01-01T03:02:12;5.77;;;1.73;;
36747;SDS011;22716;51.556;5.080;2023-01-01T03:04:52;4.23;;;2.10;;
36747;SDS011;22716;51.556;5.080;2023-01-01T03:07:32;4.60;;;2.27;;
36747;SDS011;22716;51.556;5.080;2023-01-01T03:10:09;7.37;;;2.03;;
36747;SDS011;22716;51.556;5.080;2023-01-01T03:12:42;5.37;;;1.77;;
36747;SDS011;22716;51.556;5.080;2023-01-01T03:15:22;7.23;;;2.43;;
36747;SDS011;22716;51.556;5.080;2023-01-01T03:17:57;4.07;;;1.90;;
36747;SDS011;22716;51.556;5.080;2023-01-01T03:23:01;13.33;;;2.20;;
36747;SDS011;22716;51.556;5.080;2023-01-01T03:25:35;6.93;;;2.33;;
36747;SDS011;22716;51.556;5.080;2023-01-01T03:28:09;11.23;;;2.50;;
36747;SDS011;22716;51.556;5.080;2023-01-01T03:30:44;8.40;;;2.10;;
36747;SDS011;22716;51.556;5.080;2023-01-01T03:33:17;5.10;;;2.13;;
36747;SDS011;22716;51.556;5.080;2023-01-01T03:35:51;9.80;;;1.60;;
36747;SDS011;22716;51.556;5.080;2023-01-01T03:38:25;5.97;;;1.50;;
36747;SDS011;22716;51.556;5.080;2023-01-01T03:40:59;3.23;;;1.40;;
36747;SDS011;22716;51.556;5.080;2023-01-01T03:43:33;8.20;;;2.03;;
36747;SDS011;22716;51.556;5.080;2023-01-01T03:46:11;5.63;;;2.33;;
36747;SDS011;22716;51.556;5.080;2023-01-01T03:48:42;3.33;;;1.33;;
36747;SDS011;22716;51.556;5.080;2023-01-01T03:51:26;9.10;;;2.45;;
36747;SDS011;22716;51.556;5.080;2023-01-01T03:54:08;5.37;;;2.10;;
36747;SDS011;22716;51.556;5.080;2023-01-01T03:56:44;4.37;;;1.33;;
36747;SDS011;22716;51.556;5.080;2023-01-01T03:59:18;7.23;;;2.23;;
36747;SDS011;22716;51.556;5.080;2023-01-01T04:01:55;5.37;;;2.43;;
36747;SDS011;22716;51.556;5.080;2023-01-01T04:04:25;7.67;;;1.50;;
36747;SDS011;22716;51.556;5.080;2023-01-01T04:06:54;6.03;;;1.93;;
36747;SDS011;22716;51.556;5.080;2023-01-01T04:09:27;5.10;;;2.00;;
36747;SDS011;22716;51.556;5.080;2023-01-01T04:11:58;15.38;;;2.08;;
36747;SDS011;22716;51.556;5.080;2023-01-01T04:14:32;7.87;;;2.10;;
36747;SDS011;22716;51.556;5.080;2023-01-01T04:17:06;6.83;;;1.20;;
36747;SDS011;22716;51.556;5.080;2023-01-01T04:19:36;13.48;;;1.83;;
36747;SDS011;22716;51.556;5.080;2023-01-01T04:22:05;4.17;;;1.67;;
36747;SDS011;22716;51.556;5.080;2023-01-01T04:24:34;8.10;;;1.90;;
36747;SDS011;22716;51.556;5.080;2023-01-01T04:27:03;5.57;;;1.60;;
36747;SDS011;22716;51.556;5.080;2023-01-01T04:29:31;4.77;;;1.67;;
36747;SDS011;22716;51.556;5.080;2023-01-01T04:32:01;4.93;;;1.87;;
36747;SDS011;22716;51.556;5.080;2023-01-01T04:34:33;5.03;;;1.40;;
36747;SDS011;22716;51.556;5.080;2023-01-01T04:37:02;8.27;;;2.57;;
36747;SDS011;22716;51.556;5.080;2023-01-01T04:39:30;7.00;;;2.50;;
36747;SDS011;22716;51.556;5.080;2023-01-01T04:41:59;9.60;;;2.40;;
36747;SDS011;22716;51.556;5.080;2023-01-01T04:44:28;8.33;;;1.80;;
36747;SDS011;22716;51.556;5.080;2023-01-01T04:46:57;4.73;;;2.53;;
36747;SDS011;22716;51.556;5.080;2023-01-01T04:49:25;6.30;;;2.03;;
36747;SDS011;22716;51.556;5.080;2023-01-01T04:51:57;6.33;;;2.00;;
36747;SDS011;22716;51.556;5.080;2023-01-01T04:54:26;7.33;;;1.93;;
36747;SDS011;22716;51.556;5.080;2023-01-01T04:56:54;9.00;;;2.80;;
36747;SDS011;22716;51.556;5.080;2023-01-01T04:59:23;7.87;;;2.00;;
36747;SDS011;22716;51.556;5.080;2023-01-01T05:01:52;8.33;;;1.50;;
36747;SDS011;22716;51.556;5.080;2023-01-01T05:04:21;12.33;;;2.57;;
36747;SDS011;22716;51.556;5.080;2023-01-01T05:06:50;7.37;;;2.20;;
36747;SDS011;22716;51.556;5.080;2023-01-01T05:09:21;7.27;;;1.93;;
36747;SDS011;22716;51.556;5.080;2023-01-01T05:11:50;11.00;;;1.60;;
36747;SDS011;22716;51.556;5.080;2023-01-01T05:14:20;4.80;;;1.90;;
36747;SDS011;22716;51.556;5.080;2023-01-01T05:16:49;6.47;;;2.10;;
36747;SDS011;22716;51.556;5.080;2023-01-01T05:19:19;8.33;;;2.83;;
36747;SDS011;22716;51.556;5.080;2023-01-01T05:21:48;6.17;;;2.30;;
36747;SDS011;22716;51.556;5.080;2023-01-01T05:24:21;14.63;;;2.57;;
36747;SDS011;22716;51.556;5.080;2023-01-01T05:26:50;6.77;;;1.93;;
36747;SDS011;22716;51.556;5.080;2023-01-01T05:29:19;7.27;;;2.23;;
36747;SDS011;22716;51.556;5.080;2023-01-01T05:31:48;9.93;;;1.97;;
36747;SDS011;22716;51.556;5.080;2023-01-01T05:34:17;6.60;;;2.07;;
36747;SDS011;22716;51.556;5.080;2023-01-01T05:36:46;7.80;;;2.00;;
36747;SDS011;22716;51.556;5.080;2023-01-01T05:39:15;7.80;;;2.10;;
36747;SDS011;22716;51.556;5.080;2023-01-01T05:41:46;5.93;;;2.00;;
36747;SDS011;22716;51.556;5.080;2023-01-01T05:44:16;6.70;;;1.73;;
36747;SDS011;22716;51.556;5.080;2023-01-01T05:46:44;3.07;;;1.73;;
36747;SDS011;22716;51.556;5.080;2023-01-01T05:49:13;8.23;;;2.47;;
36747;SDS011;22716;51.556;5.080;2023-01-01T05:51:42;11.13;;;2.20;;
36747;SDS011;22716;51.556;5.080;2023-01-01T05:54:11;2.60;;;1.33;;
36747;SDS011;22716;51.556;5.080;2023-01-01T05:56:39;4.90;;;1.63;;
36747;SDS011;22716;51.556;5.080;2023-01-01T05:59:11;6.77;;;1.97;;
36747;SDS011;22716;51.556;5.080;2023-01-01T06:01:40;5.30;;;1.03;;
36747;SDS011;22716;51.556;5.080;2023-01-01T06:04:09;1.37;;;1.00;;
36747;SDS011;22716;51.556;5.080;2023-01-01T06:06:37;9.47;;;1.47;;
36747;SDS011;22716;51.556;5.080;2023-01-01T06:09:06;3.10;;;1.17;;
36747;SDS011;22716;51.556;5.080;2023-01-01T06:11:35;2.83;;;0.90;;
36747;SDS011;22716;51.556;5.080;2023-01-01T06:14:03;5.23;;;1.03;;
36747;SDS011;22716;51.556;5.080;2023-01-01T06:16:35;8.13;;;1.10;;
36747;SDS011;22716;51.556;5.080;2023-01-01T06:19:03;6.77;;;1.20;;
36747;SDS011;22716;51.556;5.080;2023-01-01T06:21:32;4.17;;;1.10;;
36747;SDS011;22716;51.556;5.080;2023-01-01T06:24:01;2.20;;;0.70;;
36747;SDS011;22716;51.556;5.080;2023-01-01T06:26:30;6.20;;;1.37;;
36747;SDS011;22716;51.556;5.080;2023-01-01T06:29:00;3.13;;;1.10;;
36747;SDS011;22716;51.556;5.080;2023-01-01T06:31:30;3.20;;;1.10;;
36747;SDS011;22716;51.556;5.080;2023-01-01T06:34:02;4.93;;;1.07;;
36747;SDS011;22716;51.556;5.080;2023-01-01T06:36:30;5.63;;;1.37;;
36747;SDS011;22716;51.556;5.080;2023-01-01T06:38:59;7.47;;;1.90;;
36747;SDS011;22716;51.556;5.080;2023-01-01T06:41:28;4.87;;;1.33;;
36747;SDS011;22716;51.556;5.080;2023-01-01T06:43:58;4.03;;;1.00;;
36747;SDS011;22716;51.556;5.080;2023-01-01T06:46:27;6.00;;;1.30;;
36747;SDS011;22716;51.556;5.080;2023-01-01T06:48:59;3.97;;;0.83;;
36747;SDS011;22716;51.556;5.080;2023-01-01T06:51:32;9.07;;;1.20;;
36747;SDS011;22716;51.556;5.080;2023-01-01T06:54:04;7.80;;;1.47;;
36747;SDS011;22716;51.556;5.080;2023-01-01T06:56:33;6.50;;;1.50;;
36747;SDS011;22716;51.556;5.080;2023-01-01T06:59:03;4.53;;;1.20;;
36747;SDS011;22716;51.556;5.080;2023-01-01T07:01:33;4.77;;;0.80;;
36747;SDS011;22716;51.556;5.080;2023-01-01T07:04:07;1.10;;;0.83;;
36747;SDS011;22716;51.556;5.080;2023-01-01T07:06:39;4.27;;;1.40;;
36747;SDS011;22716;51.556;5.080;2023-01-01T07:09:08;6.07;;;1.70;;
36747;SDS011;22716;51.556;5.080;2023-01-01T07:11:37;2.80;;;0.87;;
36747;SDS011;22716;51.556;5.080;2023-01-01T07:14:06;8.37;;;1.30;;
36747;SDS011;22716;51.556;5.080;2023-01-01T07:16:34;4.77;;;1.30;;
36747;SDS011;22716;51.556;5.080;2023-01-01T07:19:03;9.47;;;1.40;;
36747;SDS011;22716;51.556;5.080;2023-01-01T07:21:36;6.53;;;1.10;;
36747;SDS011;22716;51.556;5.080;2023-01-01T07:24:09;4.87;;;1.20;;
36747;SDS011;22716;51.556;5.080;2023-01-01T07:26:39;2.50;;;0.90;;
36747;SDS011;22716;51.556;5.080;2023-01-01T07:29:08;3.47;;;1.17;;
36747;SDS011;22716;51.556;5.080;2023-01-01T07:31:37;8.50;;;1.47;;
36747;SDS011;22716;51.556;5.080;2023-01-01T07:34:10;6.87;;;1.13;;
36747;SDS011;22716;51.556;5.080;2023-01-01T07:36:43;8.53;;;1.50;;
36747;SDS011;22716;51.556;5.080;2023-01-01T07:39:12;3.13;;;1.23;;
36747;SDS011;22716;51.556;5.080;2023-01-01T07:41:41;5.30;;;1.20;;
36747;SDS011;22716;51.556;5.080;2023-01-01T07:44:10;4.20;;;1.30;;
36747;SDS011;22716;51.556;5.080;2023-01-01T07:46:38;4.10;;;1.20;;
36747;SDS011;22716;51.556;5.080;2023-01-01T07:49:07;6.87;;;1.40;;
36747;SDS011;22716;51.556;5.080;2023-01-01T07:51:36;5.97;;;1.30;;
36747;SDS011;22716;51.556;5.080;2023-01-01T07:54:07;7.77;;;1.17;;
36747;SDS011;22716;51.556;5.080;2023-01-01T07:56:36;4.57;;;1.40;;
36747;SDS011;22716;51.556;5.080;2023-01-01T07:59:04;8.43;;;1.53;;
36747;SDS011;22716;51.556;5.080;2023-01-01T08:01:34;6.60;;;2.00;;
36747;SDS011;22716;51.556;5.080;2023-01-01T08:04:04;2.40;;;1.10;;
36747;SDS011;22716;51.556;5.080;2023-01-01T08:06:33;7.43;;;1.87;;
36747;SDS011;22716;51.556;5.080;2023-01-01T08:09:02;5.37;;;1.90;;
36747;SDS011;22716;51.556;5.080;2023-01-01T08:11:33;8.40;;;1.70;;
36747;SDS011;22716;51.556;5.080;2023-01-01T08:14:02;3.97;;;1.40;;
36747;SDS011;22716;51.556;5.080;2023-01-01T08:16:31;9.40;;;1.57;;
36747;SDS011;22716;51.556;5.080;2023-01-01T08:19:00;5.43;;;1.50;;
36747;SDS011;22716;51.556;5.080;2023-01-01T08:21:29;4.77;;;1.30;;
36747;SDS011;22716;51.556;5.080;2023-01-01T08:23:57;5.80;;;2.07;;
36747;SDS011;22716;51.556;5.080;2023-01-01T08:26:26;6.07;;;1.50;;
36747;SDS011;22716;51.556;5.080;2023-01-01T08:29:00;4.00;;;1.87;;
36747;SDS011;22716;51.556;5.080;2023-01-01T08:31:29;12.30;;;2.73;;
36747;SDS011;22716;51.556;5.080;2023-01-01T08:33:58;5.80;;;1.83;;
36747;SDS011;22716;51.556;5.080;2023-01-01T08:36:26;9.07;;;2.37;;
36747;SDS011;22716;51.556;5.080;2023-01-01T08:38:55;7.17;;;1.80;;
36747;SDS011;22716;51.556;5.080;2023-01-01T08:41:24;6.70;;;1.80;;
36747;SDS011;22716;51.556;5.080;2023-01-01T08:43:53;8.17;;;1.77;;
36747;SDS011;22716;51.556;5.080;2023-01-01T08:46:24;7.93;;;1.60;;
36747;SDS011;22716;51.556;5.080;2023-01-01T08:48:53;7.53;;;2.07;;
36747;SDS011;22716;51.556;5.080;2023-01-01T08:51:22;6.80;;;2.07;;
36747;SDS011;22716;51.556;5.080;2023-01-01T08:53:51;14.07;;;2.27;;
36747;SDS011;22716;51.556;5.080;2023-01-01T08:56:19;4.63;;;1.63;;
36747;SDS011;22716;51.556;5.080;2023-01-01T08:58:48;10.27;;;2.43;;
36747;SDS011;22716;51.556;5.080;2023-01-01T09:01:17;4.93;;;1.70;;
36747;SDS011;22716;51.556;5.080;2023-01-01T09:03:49;7.33;;;1.87;;
36747;SDS011;22716;51.556;5.080;2023-01-01T09:06:18;6.90;;;1.60;;
36747;SDS011;22716;51.556;5.080;2023-01-01T09:08:47;7.90;;;2.20;;
36747;SDS011;22716;51.556;5.080;2023-01-01T09:11:19;6.57;;;1.53;;
36747;SDS011;22716;51.556;5.080;2023-01-01T09:13:50;5.60;;;2.10;;
36747;SDS011;22716;51.556;5.080;2023-01-01T09:16:20;8.63;;;2.10;;
36747;SDS011;22716;51.556;5.080;2023-01-01T09:18:52;6.90;;;1.93;;
36747;SDS011;22716;51.556;5.080;2023-01-01T09:21:21;10.67;;;2.70;;
36747;SDS011;22716;51.556;5.080;2023-01-01T09:23:49;9.63;;;2.00;;
36747;SDS011;22716;51.556;5.080;2023-01-01T09:26:18;9.60;;;2.77;;
36747;SDS011;22716;51.556;5.080;2023-01-01T09:28:47;7.13;;;2.00;;
36747;SDS011;22716;51.556;5.080;2023-01-01T09:31:16;9.10;;;2.33;;
36747;SDS011;22716;51.556;5.080;2023-01-01T09:33:45;7.00;;;2.03;;
36747;SDS011;22716;51.556;5.080;2023-01-01T09:36:25;9.97;;;3.13;;
36747;SDS011;22716;51.556;5.080;2023-01-01T09:38:56;6.50;;;2.17;;
36747;SDS011;22716;51.556;5.080;2023-01-01T09:41:31;10.30;;;2.70;;
36747;SDS011;22716;51.556;5.080;2023-01-01T09:44:14;10.03;;;2.40;;
36747;SDS011;22716;51.556;5.080;2023-01-01T09:46:51;9.83;;;2.37;;
36747;SDS011;22716;51.556;5.080;2023-01-01T09:49:22;13.47;;;2.93;;
36747;SDS011;22716;51.556;5.080;2023-01-01T09:52:02;9.23;;;3.00;;
36747;SDS011;22716;51.556;5.080;2023-01-01T09:54:33;11.90;;;2.77;;
36747;SDS011;22716;51.556;5.080;2023-01-01T09:57:10;8.63;;;3.33;;
36747;SDS011;22716;51.556;5.080;2023-01-01T09:59:41;14.07;;;4.03;;
36747;SDS011;22716;51.556;5.080;2023-01-01T10:02:12;11.97;;;2.67;;
36747;SDS011;22716;51.556;5.080;2023-01-01T10:05:00;6.60;;;2.67;;
36747;SDS011;22716;51.556;5.080;2023-01-01T10:07:40;8.10;;;2.20;;
36747;SDS011;22716;51.556;5.080;2023-01-01T10:10:19;12.40;;;2.83;;
36747;SDS011;22716;51.556;5.080;2023-01-01T10:12:58;5.90;;;2.47;;
36747;SDS011;22716;51.556;5.080;2023-01-01T10:15:35;8.63;;;3.07;;
36747;SDS011;22716;51.556;5.080;2023-01-01T10:18:10;12.53;;;4.23;;
36747;SDS011;22716;51.556;5.080;2023-01-01T10:20:45;9.03;;;3.13;;
36747;SDS011;22716;51.556;5.080;2023-01-01T10:23:21;9.25;;;3.70;;
36747;SDS011;22716;51.556;5.080;2023-01-01T10:25:54;10.87;;;3.53;;
36747;SDS011;22716;51.556;5.080;2023-01-01T10:28:28;12.43;;;5.23;;
36747;SDS011;22716;51.556;5.080;2023-01-01T10:31:09;11.63;;;3.97;;
36747;SDS011;22716;51.556;5.080;2023-01-01T10:33:43;17.37;;;4.57;;
36747;SDS011;22716;51.556;5.080;2023-01-01T10:36:14;7.40;;;3.70;;
36747;SDS011;22716;51.556;5.080;2023-01-01T10:38:49;5.27;;;2.97;;
36747;SDS011;22716;51.556;5.080;2023-01-01T10:41:18;11.23;;;3.30;;
36747;SDS011;22716;51.556;5.080;2023-01-01T10:43:47;10.10;;;4.63;;
36747;SDS011;22716;51.556;5.080;2023-01-01T10:46:18;12.63;;;4.13;;
36747;SDS011;22716;51.556;5.080;2023-01-01T10:49:02;9.47;;;3.07;;
36747;SDS011;22716;51.556;5.080;2023-01-01T10:51:37;10.43;;;2.97;;
36747;SDS011;22716;51.556;5.080;2023-01-01T10:54:23;6.13;;;2.57;;
36747;SDS011;22716;51.556;5.080;2023-01-01T10:56:59;15.90;;;4.40;;
36747;SDS011;22716;51.556;5.080;2023-01-01T10:59:40;15.87;;;3.97;;
36747;SDS011;22716;51.556;5.080;2023-01-01T11:02:14;10.40;;;3.83;;
36747;SDS011;22716;51.556;5.080;2023-01-01T11:04:45;10.03;;;3.40;;
36747;SDS011;22716;51.556;5.080;2023-01-01T11:07:25;11.90;;;2.80;;
36747;SDS011;22716;51.556;5.080;2023-01-01T11:09:59;12.07;;;3.20;;
36747;SDS011;22716;51.556;5.080;2023-01-01T11:12:32;9.45;;;3.60;;
36747;SDS011;22716;51.556;5.080;2023-01-01T11:15:04;9.75;;;3.35;;
36747;SDS011;22716;51.556;5.080;2023-01-01T11:17:35;11.77;;;2.87;;
36747;SDS011;22716;51.556;5.080;2023-01-01T11:20:04;11.60;;;3.70;;
36747;SDS011;22716;51.556;5.080;2023-01-01T11:22:35;8.97;;;3.13;;
36747;SDS011;22716;51.556;5.080;2023-01-01T11:25:19;10.30;;;3.17;;
36747;SDS011;22716;51.556;5.080;2023-01-01T11:27:50;8.37;;;2.83;;
36747;SDS011;22716;51.556;5.080;2023-01-01T11:30:22;9.57;;;3.80;;
36747;SDS011;22716;51.556;5.080;2023-01-01T11:32:54;14.60;;;4.27;;
36747;SDS011;22716;51.556;5.080;2023-01-01T11:35:28;8.80;;;2.83;;
36747;SDS011;22716;51.556;5.080;2023-01-01T11:37:59;7.53;;;2.50;;
36747;SDS011;22716;51.556;5.080;2023-01-01T11:40:34;12.37;;;2.27;;
36747;SDS011;22716;51.556;5.080;2023-01-01T11:43:05;10.17;;;2.43;;
36747;SDS011;22716;51.556;5.080;2023-01-01T11:45:37;10.53;;;3.47;;
36747;SDS011;22716;51.556;5.080;2023-01-01T11:48:11;10.33;;;2.50;;
36747;SDS011;22716;51.556;5.080;2023-01-01T11:50:48;9.10;;;3.17;;
36747;SDS011;22716;51.556;5.080;2023-01-01T11:53:26;8.67;;;3.03;;
36747;SDS011;22716;51.556;5.080;2023-01-01T11:56:02;10.10;;;1.93;;
36747;SDS011;22716;51.556;5.080;2023-01-01T11:58:39;17.00;;;2.80;;
36747;SDS011;22716;51.556;5.080;2023-01-01T12:01:16;10.03;;;2.40;;
36747;SDS011;22716;51.556;5.080;2023-01-01T12:03:53;12.77;;;3.00;;
36747;SDS011;22716;51.556;5.080;2023-01-01T12:06:26;8.43;;;2.40;;
36747;SDS011;22716;51.556;5.080;2023-01-01T12:09:01;10.97;;;2.90;;
36747;SDS011;22716;51.556;5.080;2023-01-01T12:11:42;11.40;;;3.57;;
36747;SDS011;22716;51.556;5.080;2023-01-01T12:14:16;8.97;;;2.37;;
36747;SDS011;22716;51.556;5.080;2023-01-01T12:16:51;15.50;;;2.57;;
36747;SDS011;22716;51.556;5.080;2023-01-01T12:19:25;10.80;;;3.53;;
36747;SDS011;22716;51.556;5.080;2023-01-01T12:21:58;10.07;;;2.37;;
36747;SDS011;22716;51.556;5.080;2023-01-01T12:24:31;7.73;;;3.90;;
36747;SDS011;22716;51.556;5.080;2023-01-01T12:27:13;9.43;;;2.47;;
36747;SDS011;22716;51.556;5.080;2023-01-01T12:29:52;8.65;;;2.40;;
36747;SDS011;22716;51.556;5.080;2023-01-01T12:32:32;8.13;;;2.40;;
36747;SDS011;22716;51.556;5.080;2023-01-01T12:35:13;5.53;;;2.33;;
36747;SDS011;22716;51.556;5.080;2023-01-01T12:37:54;8.87;;;2.63;;
36747;SDS011;22716;51.556;5.080;2023-01-01T12:40:38;7.70;;;3.27;;
36747;SDS011;22716;51.556;5.080;2023-01-01T12:43:20;14.30;;;3.63;;
36747;SDS011;22716;51.556;5.080;2023-01-01T12:46:06;10.33;;;2.93;;
36747;SDS011;22716;51.556;5.080;2023-01-01T12:48:52;7.70;;;2.50;;
36747;SDS011;22716;51.556;5.080;2023-01-01T12:51:40;13.80;;;3.63;;
36747;SDS011;22716;51.556;5.080;2023-01-01T12:57:30;6.17;;;2.43;;
36747;SDS011;22716;51.556;5.080;2023-01-01T13:00:12;6.70;;;1.93;;
36747;SDS011;22716;51.556;5.080;2023-01-01T13:02:45;15.70;;;3.40;;
36747;SDS011;22716;51.556;5.080;2023-01-01T13:05:19;6.77;;;2.87;;
36747;SDS011;22716;51.556;5.080;2023-01-01T13:07:52;9.43;;;3.03;;
36747;SDS011;22716;51.556;5.080;2023-01-01T13:10:28;9.43;;;2.37;;
36747;SDS011;22716;51.556;5.080;2023-01-01T13:13:01;12.32;;;3.70;;
36747;SDS011;22716;51.556;5.080;2023-01-01T13:18:25;12.63;;;3.10;;
36747;SDS011;22716;51.556;5.080;2023-01-01T13:20:58;10.00;;;2.93;;
36747;SDS011;22716;51.556;5.080;2023-01-01T13:26:34;7.70;;;2.80;;
36747;SDS011;22716;51.556;5.080;2023-01-01T13:32:13;16.47;;;3.87;;
36747;SDS011;22716;51.556;5.080;2023-01-01T13:37:30;13.13;;;2.93;;
36747;SDS011;22716;51.556;5.080;2023-01-01T13:43:05;10.10;;;2.90;;
36747;SDS011;22716;51.556;5.080;2023-01-01T13:45:44;12.43;;;2.80;;
36747;SDS011;22716;51.556;5.080;2023-01-01T13:48:27;8.47;;;2.57;;
36747;SDS011;22716;51.556;5.080;2023-01-01T13:51:12;13.93;;;3.00;;
36747;SDS011;22716;51.556;5.080;2023-01-01T13:53:56;15.60;;;3.40;;
36747;SDS011;22716;51.556;5.080;2023-01-01T13:56:40;9.57;;;2.90;;
36747;SDS011;22716;51.556;5.080;2023-01-01T13:59:22;15.93;;;3.93;;
36747;SDS011;22716;51.556;5.080;2023-01-01T14:02:21;10.53;;;4.07;;
36747;SDS011;22716;51.556;5.080;2023-01-01T14:04:56;16.60;;;3.50;;
36747;SDS011;22716;51.556;5.080;2023-01-01T14:07:30;7.93;;;2.53;;
36747;SDS011;22716;51.556;5.080;2023-01-01T14:10:14;16.13;;;3.77;;
36747;SDS011;22716;51.556;5.080;2023-01-01T14:12:48;11.67;;;3.23;;
36747;SDS011;22716;51.556;5.080;2023-01-01T14:15:23;11.23;;;3.20;;
36747;SDS011;22716;51.556;5.080;2023-01-01T14:17:54;9.70;;;3.00;;
36747;SDS011;22716;51.556;5.080;2023-01-01T14:20:31;16.80;;;3.20;;
36747;SDS011;22716;51.556;5.080;2023-01-01T14:23:07;13.27;;;3.87;;
36747;SDS011;22716;51.556;5.080;2023-01-01T14:25:38;13.00;;;2.72;;
36747;SDS011;22716;51.556;5.080;2023-01-01T14:28:11;7.83;;;2.73;;
36747;SDS011;22716;51.556;5.080;2023-01-01T14:30:46;10.47;;;3.40;;
36747;SDS011;22716;51.556;5.080;2023-01-01T14:33:23;8.40;;;3.60;;
36747;SDS011;22716;51.556;5.080;2023-01-01T14:35:56;10.73;;;2.60;;
36747;SDS011;22716;51.556;5.080;2023-01-01T14:38:26;15.03;;;3.53;;
36747;SDS011;22716;51.556;5.080;2023-01-01T14:41:01;10.57;;;2.63;;
36747;SDS011;22716;51.556;5.080;2023-01-01T14:43:41;15.47;;;3.60;;
36747;SDS011;22716;51.556;5.080;2023-01-01T14:46:12;15.70;;;4.00;;
36747;SDS011;22716;51.556;5.080;2023-01-01T14:48:43;12.13;;;4.03;;
36747;SDS011;22716;51.556;5.080;2023-01-01T14:51:18;9.47;;;2.97;;
36747;SDS011;22716;51.556;5.080;2023-01-01T14:53:49;7.80;;;2.17;;
36747;SDS011;22716;51.556;5.080;2023-01-01T14:56:22;12.67;;;3.57;;
36747;SDS011;22716;51.556;5.080;2023-01-01T14:58:53;8.17;;;2.87;;
36747;SDS011;22716;51.556;5.080;2023-01-01T15:01:25;14.60;;;3.10;;
36747;SDS011;22716;51.556;5.080;2023-01-01T15:03:55;6.83;;;3.43;;
36747;SDS011;22716;51.556;5.080;2023-01-01T15:06:28;12.93;;;3.37;;
36747;SDS011;22716;51.556;5.080;2023-01-01T15:08:58;15.90;;;2.80;;
36747;SDS011;22716;51.556;5.080;2023-01-01T15:11:26;11.63;;;3.87;;
36747;SDS011;22716;51.556;5.080;2023-01-01T15:13:57;11.43;;;3.60;;
36747;SDS011;22716;51.556;5.080;2023-01-01T15:16:28;13.20;;;3.77;;
36747;SDS011;22716;51.556;5.080;2023-01-01T15:18:57;8.67;;;3.03;;
36747;SDS011;22716;51.556;5.080;2023-01-01T15:21:35;13.23;;;3.70;;
36747;SDS011;22716;51.556;5.080;2023-01-01T15:24:09;8.70;;;3.27;;
36747;SDS011;22716;51.556;5.080;2023-01-01T15:26:41;13.77;;;3.83;;
36747;SDS011;22716;51.556;5.080;2023-01-01T15:29:14;8.47;;;3.20;;
36747;SDS011;22716;51.556;5.080;2023-01-01T15:31:48;10.17;;;3.13;;
36747;SDS011;22716;51.556;5.080;2023-01-01T15:34:23;10.43;;;2.97;;
36747;SDS011;22716;51.556;5.080;2023-01-01T15:37:03;9.93;;;3.00;;
36747;SDS011;22716;51.556;5.080;2023-01-01T15:39:43;10.17;;;3.13;;
36747;SDS011;22716;51.556;5.080;2023-01-01T15:42:21;9.10;;;3.87;;
36747;SDS011;22716;51.556;5.080;2023-01-01T15:45:06;10.13;;;3.60;;